createdAt,value
2022-08-11T00:02:06.180Z,2.63
2022-08-11T00:05:36.175Z,2.05
2022-08-11T00:09:03.198Z,1.80
2022-08-11T00:12:30.181Z,1.85
2022-08-11T00:16:00.305Z,1.90
2022-08-11T00:20:12.373Z,2.70
2022-08-11T00:23:06.231Z,1.77
2022-08-11T00:26:31.184Z,1.90
2022-08-11T00:29:52.191Z,1.77
2022-08-11T00:33:13.154Z,1.75
2022-08-11T00:36:39.184Z,2.08
2022-08-11T00:40:05.282Z,1.75
2022-08-11T00:44:01.182Z,1.95
2022-08-11T00:47:48.230Z,1.90
2022-08-11T00:52:02.161Z,1.90
2022-08-11T00:55:47.053Z,2.53
2022-08-11T00:59:34.818Z,1.92
2022-08-11T01:03:04.255Z,2.00
2022-08-11T01:06:56.177Z,2.03
2022-08-11T01:10:29.248Z,2.20
2022-08-11T01:14:18.234Z,1.60
2022-08-11T01:18:39.586Z,1.30
2022-08-11T01:22:22.217Z,2.03
2022-08-11T01:26:02.288Z,2.13
2022-08-11T01:30:00.279Z,2.13
2022-08-11T01:33:36.215Z,2.13
2022-08-11T01:37:09.208Z,2.00
2022-08-11T01:41:04.293Z,1.73
2022-08-11T01:44:45.263Z,1.60
2022-08-11T01:48:30.392Z,1.90
2022-08-11T01:52:34.610Z,2.30
2022-08-11T01:56:26.325Z,1.80
2022-08-11T01:59:59.256Z,1.70
2022-08-11T02:03:52.336Z,1.88
2022-08-11T02:07:54.245Z,2.00
2022-08-11T02:11:42.225Z,1.70
2022-08-11T02:15:33.257Z,1.83
2022-08-11T02:19:21.281Z,2.28
2022-08-11T02:23:58.715Z,1.83
2022-08-11T02:27:28.250Z,2.08
2022-08-11T02:32:04.864Z,1.88
2022-08-11T02:34:59.281Z,1.90
2022-08-11T02:38:32.257Z,1.85
2022-08-11T02:42:31.687Z,1.90
2022-08-11T02:46:05.245Z,1.83
2022-08-11T02:50:06.899Z,1.80
2022-08-11T02:53:44.304Z,2.10
2022-08-11T02:57:26.284Z,1.88
2022-08-11T03:01:14.379Z,2.00
2022-08-11T03:04:58.325Z,1.92
2022-08-11T03:08:36.270Z,1.63
2022-08-11T03:12:44.262Z,2.17
2022-08-11T03:16:41.226Z,1.52
2022-08-11T03:20:14.329Z,2.60
2022-08-11T03:23:41.242Z,2.05
2022-08-11T03:27:22.223Z,2.88
2022-08-11T03:31:04.351Z,2.10
2022-08-11T03:34:36.311Z,2.38
2022-08-11T03:38:16.316Z,2.28
2022-08-11T03:42:04.055Z,2.10
2022-08-11T03:45:51.255Z,6.80
2022-08-11T03:49:55.278Z,2.65
2022-08-11T03:53:42.268Z,2.58
2022-08-11T03:57:43.291Z,2.40
2022-08-11T04:01:42.355Z,3.00
2022-08-11T04:08:59.322Z,1.88
2022-08-11T04:12:37.283Z,2.35
2022-08-11T04:37:53.518Z,3.58
2022-08-11T04:42:13.329Z,2.38
2022-08-11T04:46:03.246Z,6.38
2022-08-11T04:50:16.331Z,3.20
2022-08-11T04:54:13.259Z,2.60
2022-08-11T04:58:20.360Z,2.85
2022-08-11T05:02:04.365Z,3.08
2022-08-11T05:06:14.278Z,3.42
2022-08-11T05:09:50.292Z,3.50
2022-08-11T05:17:29.260Z,3.30
2022-08-11T05:21:19.346Z,3.00
2022-08-11T05:25:15.360Z,3.42
2022-08-11T05:29:25.340Z,3.10
2022-08-11T05:33:09.337Z,3.45
2022-08-11T05:37:11.602Z,3.35
2022-08-11T05:40:51.214Z,2.67
2022-08-11T05:44:34.373Z,2.45
2022-08-11T05:48:14.403Z,3.90
2022-08-11T05:51:57.103Z,3.40
2022-08-11T05:56:01.631Z,2.40
2022-08-11T05:59:18.335Z,3.63
2022-08-11T06:02:40.341Z,2.55
2022-08-11T06:06:01.269Z,2.92
2022-08-11T06:09:23.275Z,3.05
2022-08-11T06:12:48.284Z,2.45
2022-08-11T06:16:11.290Z,3.50
2022-08-11T06:19:36.283Z,2.55
2022-08-11T06:23:01.284Z,2.90
2022-08-11T06:26:24.370Z,3.60
2022-08-11T06:29:55.248Z,2.97
2022-08-11T06:33:18.464Z,3.30
2022-08-11T06:36:52.347Z,2.88
2022-08-11T06:40:34.405Z,2.20
2022-08-11T06:44:26.389Z,3.33
2022-08-11T06:47:48.331Z,2.70
2022-08-11T06:51:23.291Z,2.50
2022-08-11T06:54:40.363Z,2.83
2022-08-11T07:02:00.490Z,3.10
2022-08-11T07:05:34.432Z,2.47
2022-08-11T07:09:33.435Z,2.28
2022-08-11T07:13:44.434Z,2.67
2022-08-11T07:17:01.335Z,2.63
2022-08-11T07:20:42.425Z,2.50
2022-08-11T07:24:34.349Z,2.20
2022-08-11T07:28:34.363Z,2.15
2022-08-11T07:32:10.537Z,2.28
2022-08-11T07:35:38.459Z,2.97
2022-08-11T07:39:03.382Z,3.10
2022-08-11T07:42:29.460Z,2.03
2022-08-11T07:46:15.358Z,1.80
2022-08-11T07:49:55.377Z,2.55
2022-08-11T07:53:18.517Z,5.10
2022-08-11T07:57:07.390Z,2.80
2022-08-11T08:00:40.408Z,3.00
2022-08-11T08:04:19.361Z,3.63
2022-08-11T08:07:58.409Z,2.47
2022-08-11T08:11:39.381Z,2.05
2022-08-11T08:15:18.322Z,2.03
2022-08-11T08:18:39.601Z,3.10
2022-08-11T08:22:06.054Z,2.10
2022-08-11T08:25:49.344Z,2.50
2022-08-11T08:29:33.357Z,2.20
2022-08-11T08:32:48.462Z,2.13
2022-08-11T08:36:18.351Z,2.58
2022-08-11T08:39:44.430Z,2.03
2022-08-11T08:43:11.447Z,1.98
2022-08-11T08:46:39.318Z,2.10
2022-08-11T08:50:04.413Z,2.67
2022-08-11T08:53:26.378Z,1.70
2022-08-11T08:56:49.370Z,2.22
2022-08-11T09:00:13.046Z,3.22
2022-08-11T09:04:02.806Z,1.90
2022-08-11T09:07:23.340Z,2.50
2022-08-11T09:10:44.369Z,2.00
2022-08-11T09:14:10.340Z,2.80
2022-08-11T09:17:34.380Z,2.10
2022-08-11T09:20:56.382Z,3.95
2022-08-11T09:24:40.357Z,2.67
2022-08-11T09:28:03.344Z,3.25
2022-08-11T09:31:25.351Z,2.00
2022-08-11T09:34:50.373Z,7.30
2022-08-11T09:38:30.337Z,2.40
2022-08-11T09:42:00.969Z,2.28
2022-08-11T09:45:25.352Z,1.70
2022-08-11T09:48:53.347Z,1.85
2022-08-11T09:52:16.424Z,2.83
2022-08-11T09:55:38.400Z,2.15
2022-08-11T09:58:59.397Z,1.95
2022-08-11T10:02:23.403Z,2.50
2022-08-11T10:06:07.332Z,1.90
2022-08-11T10:09:33.500Z,2.47
2022-08-11T10:13:00.362Z,2.25
2022-08-11T10:19:38.360Z,2.10
2022-08-11T10:23:18.388Z,2.95
2022-08-11T10:27:00.728Z,2.80
2022-08-11T10:30:47.347Z,2.50
2022-08-11T10:34:10.414Z,2.50
2022-08-11T10:38:07.890Z,2.15
2022-08-11T10:42:03.357Z,2.10
2022-08-11T10:45:41.398Z,3.25
2022-08-11T10:49:02.359Z,2.30
2022-08-11T10:52:42.331Z,2.80
2022-08-11T10:56:22.414Z,2.10
2022-08-11T10:59:43.377Z,2.17
2022-08-11T11:03:22.646Z,2.83
2022-08-11T11:06:51.407Z,2.33
2022-08-11T11:10:16.382Z,1.92
2022-08-11T11:13:57.361Z,1.92
2022-08-11T11:17:20.396Z,2.33
2022-08-11T11:20:49.371Z,2.38
2022-08-11T11:24:41.444Z,2.08
2022-08-11T11:28:30.417Z,2.80
2022-08-11T11:32:07.390Z,2.70
2022-08-11T11:35:33.395Z,2.40
2022-08-11T11:38:55.387Z,1.80
2022-08-11T11:42:12.532Z,2.40
2022-08-11T11:45:29.397Z,1.92
2022-08-11T11:48:50.418Z,2.38
2022-08-11T11:52:13.442Z,2.08
2022-08-11T11:55:36.388Z,2.10
2022-08-11T11:59:16.399Z,1.98
2022-08-11T12:02:37.422Z,2.97
2022-08-11T12:06:00.437Z,2.80
2022-08-11T12:09:27.409Z,2.47
2022-08-11T12:13:06.413Z,3.10
2022-08-11T12:16:33.538Z,2.72
2022-08-11T12:19:57.350Z,1.90
2022-08-11T12:23:36.415Z,2.33
2022-08-11T12:27:17.851Z,2.60
2022-08-11T12:30:39.500Z,2.70
2022-08-11T12:34:02.420Z,2.33
2022-08-11T12:37:23.426Z,2.42
2022-08-11T12:41:17.972Z,1.85
2022-08-11T12:45:03.517Z,2.25
2022-08-11T12:48:59.372Z,2.15
2022-08-11T12:52:26.513Z,2.20
2022-08-11T12:56:07.764Z,2.10
2022-08-11T12:59:47.412Z,3.45
2022-08-11T13:03:29.454Z,2.42
2022-08-11T13:06:51.420Z,3.67
2022-08-11T13:10:17.124Z,2.70
2022-08-11T13:13:54.826Z,2.33
2022-08-11T13:17:43.952Z,2.60
2022-08-11T13:21:10.421Z,3.13
2022-08-11T13:24:35.535Z,1.80
2022-08-11T13:28:00.403Z,2.00
2022-08-11T13:31:28.070Z,2.22
2022-08-11T13:34:49.497Z,2.22
2022-08-11T13:38:28.387Z,2.00
2022-08-11T13:41:51.533Z,1.95
2022-08-11T13:45:05.617Z,2.33
2022-08-11T13:48:29.604Z,2.15
2022-08-11T13:51:52.534Z,2.13
2022-08-11T13:55:51.655Z,2.40
2022-08-11T13:59:02.627Z,2.63
2022-08-11T14:02:30.879Z,2.65
2022-08-11T14:06:03.511Z,2.70
2022-08-11T14:09:29.453Z,2.25
2022-08-11T14:13:16.968Z,2.75
2022-08-11T14:16:46.498Z,2.20
2022-08-11T14:20:38.753Z,1.95
2022-08-11T14:23:54.515Z,2.53
2022-08-11T14:28:30.610Z,4.90
2022-08-11T14:31:03.569Z,3.35
2022-08-11T14:34:27.527Z,2.35
2022-08-11T14:37:49.739Z,2.65
2022-08-11T14:41:29.559Z,2.35
2022-08-11T14:45:09.507Z,2.15
2022-08-11T14:48:30.532Z,2.50
2022-08-11T14:51:47.171Z,3.17
2022-08-11T14:55:27.624Z,2.67
2022-08-11T14:58:49.663Z,2.90
2022-08-11T15:02:28.646Z,3.15
2022-08-11T15:05:57.650Z,2.70
2022-08-11T15:09:19.540Z,3.65
2022-08-11T15:12:45.536Z,2.70
2022-08-11T15:16:24.504Z,3.25
2022-08-11T15:20:07.568Z,2.55
2022-08-11T15:23:48.531Z,4.55
2022-08-11T15:27:29.582Z,2.50
2022-08-11T15:31:11.469Z,3.88
2022-08-11T15:34:53.501Z,2.33
2022-08-11T15:38:16.598Z,3.50
2022-08-11T15:42:13.703Z,2.35
2022-08-11T15:45:56.625Z,2.50
2022-08-11T15:50:11.779Z,2.53
2022-08-11T15:53:22.617Z,2.78
2022-08-11T15:56:38.582Z,3.17
2022-08-11T16:04:12.670Z,3.20
2022-08-11T16:07:39.109Z,2.30
2022-08-11T16:11:02.457Z,2.60
2022-08-11T16:14:46.546Z,2.75
2022-08-11T16:18:12.481Z,3.72
2022-08-11T16:21:36.665Z,3.10
2022-08-11T16:27:03.506Z,3.33
2022-08-11T16:28:41.517Z,2.65
2022-08-11T16:32:23.568Z,2.90
2022-08-11T16:36:05.490Z,3.28
2022-08-11T16:39:29.566Z,5.68
2022-08-11T16:43:10.880Z,4.47
2022-08-11T16:46:54.831Z,3.22
2022-08-11T16:50:16.512Z,2.60
2022-08-11T16:54:00.264Z,3.38
2022-08-11T16:57:44.530Z,2.78
2022-08-11T17:01:05.550Z,3.83
2022-08-11T17:05:02.729Z,2.83
2022-08-11T17:08:41.489Z,3.60
2022-08-11T17:12:30.494Z,4.15
2022-08-11T17:16:14.512Z,3.88
2022-08-11T17:20:40.712Z,4.40
2022-08-11T17:24:00.484Z,7.15
2022-08-11T17:27:26.502Z,5.20
2022-08-11T17:31:10.715Z,4.13
2022-08-11T17:34:59.538Z,4.65
2022-08-11T17:38:31.496Z,4.85
2022-08-11T17:42:12.717Z,4.05
2022-08-11T17:46:08.123Z,3.85
2022-08-11T17:49:31.475Z,9.75
2022-08-11T17:53:12.518Z,5.22
2022-08-11T17:56:53.494Z,5.18
2022-08-11T18:00:15.499Z,4.78
2022-08-11T18:03:41.528Z,3.25
2022-08-11T18:07:03.505Z,3.25
2022-08-11T18:10:42.516Z,3.50
2022-08-11T18:14:23.519Z,3.35
2022-08-11T18:18:03.575Z,4.10
2022-08-11T18:21:45.483Z,4.68
2022-08-11T18:25:46.520Z,4.13
2022-08-11T18:29:28.492Z,4.65
2022-08-11T18:33:45.151Z,3.97
2022-08-11T18:37:20.011Z,3.80
2022-08-11T18:41:01.532Z,3.47
2022-08-11T18:44:42.551Z,3.72
2022-08-11T18:48:33.217Z,4.32
2022-08-11T18:52:17.535Z,4.10
2022-08-11T18:55:56.531Z,5.30
2022-08-11T18:59:39.592Z,4.22
2022-08-11T19:03:20.533Z,4.90
2022-08-11T19:07:02.528Z,5.13
2022-08-11T19:10:42.496Z,4.57
2022-08-11T19:14:23.555Z,4.88
2022-08-11T19:18:06.597Z,4.35
2022-08-11T19:21:49.630Z,4.35
2022-08-11T19:25:29.515Z,5.00
2022-08-11T19:30:07.786Z,3.97
2022-08-11T19:33:12.544Z,4.95
2022-08-11T19:36:51.570Z,3.28
2022-08-11T19:40:35.560Z,3.45
2022-08-11T19:44:16.771Z,3.20
2022-08-11T19:48:08.203Z,4.93
2022-08-11T19:51:54.035Z,3.83
2022-08-11T19:55:34.542Z,4.57
2022-08-11T19:59:14.534Z,3.95
2022-08-11T20:02:54.541Z,4.05
2022-08-11T20:06:38.580Z,3.80
2022-08-11T20:10:20.614Z,4.38
2022-08-11T20:14:01.647Z,3.08
2022-08-11T20:17:42.555Z,4.05
2022-08-11T20:21:25.548Z,3.95
2022-08-11T20:25:10.571Z,3.72
2022-08-11T20:28:51.588Z,4.15
2022-08-11T20:32:31.564Z,4.43
2022-08-11T20:36:04.559Z,4.13
2022-08-11T20:39:46.611Z,4.25
2022-08-11T20:44:05.480Z,4.88
2022-08-11T20:47:26.585Z,4.25
2022-08-11T20:51:08.567Z,4.45
2022-08-11T20:54:49.619Z,4.35
2022-08-11T20:58:47.015Z,5.95
2022-08-11T21:02:30.655Z,4.22
2022-08-11T21:06:11.613Z,4.55
2022-08-11T21:10:00.949Z,4.72
2022-08-11T21:13:54.617Z,5.25
2022-08-11T21:17:35.585Z,6.80
2022-08-11T21:21:31.564Z,4.50
2022-08-11T21:25:28.577Z,5.28
2022-08-11T21:29:10.578Z,4.10
2022-08-11T21:32:51.660Z,4.20
2022-08-11T21:36:33.593Z,4.95
2022-08-11T21:40:17.133Z,4.28
2022-08-11T21:43:59.590Z,4.28
2022-08-11T21:47:42.961Z,4.32
2022-08-11T21:51:23.605Z,4.28
2022-08-11T21:55:03.570Z,4.68
2022-08-11T21:58:43.583Z,4.13
2022-08-11T22:02:23.590Z,4.03
2022-08-11T22:06:06.573Z,4.32
2022-08-11T22:09:45.652Z,4.32
2022-08-11T22:13:25.601Z,4.20
2022-08-11T22:16:57.648Z,5.93
2022-08-11T22:20:37.575Z,4.45
2022-08-11T22:24:18.598Z,6.05
2022-08-11T22:28:08.609Z,6.47
2022-08-11T22:31:50.594Z,5.40
2022-08-11T22:35:33.649Z,4.85
2022-08-11T22:39:13.658Z,5.22
2022-08-11T22:42:52.645Z,4.68
2022-08-11T22:46:32.613Z,5.50
2022-08-11T22:50:14.622Z,7.13
2022-08-11T22:53:59.085Z,4.70
2022-08-11T22:57:38.619Z,6.88
2022-08-11T23:01:17.741Z,4.82
2022-08-11T23:04:57.658Z,5.20
2022-08-11T23:08:37.581Z,4.07
2022-08-11T23:12:16.585Z,3.78
2022-08-11T23:15:56.642Z,4.00
2022-08-11T23:20:06.891Z,4.10
2022-08-11T23:23:37.636Z,9.30
2022-08-11T23:27:17.613Z,5.72
2022-08-11T23:30:56.593Z,4.35
2022-08-11T23:35:02.725Z,4.72
2022-08-11T23:38:35.627Z,4.30
2022-08-11T23:42:15.640Z,4.28
2022-08-11T23:45:55.621Z,3.40
2022-08-11T23:49:53.632Z,3.92
2022-08-11T23:53:33.610Z,4.50
2022-08-11T23:57:12.637Z,5.05
